sensor_id;sensor_type;location;lat;lon;timestamp;P1;durP1;ratioP1;P2;durP2;ratioP2
18917;SDS011;9591;52.742;13.650;2023-06-26T00:00:15;13.03;;;8.20;;
18917;SDS011;9591;52.742;13.650;2023-06-26T00:03:03;12.43;;;8.57;;
18917;SDS011;9591;52.742;13.650;2023-06-26T00:05:51;13.50;;;8.97;;
18917;SDS011;9591;52.742;13.650;2023-06-26T00:08:38;25.10;;;9.27;;
18917;SDS011;9591;52.742;13.650;2023-06-26T00:11:25;14.37;;;9.70;;
18917;SDS011;9591;52.742;13.650;2023-06-26T00:14:12;13.23;;;9.03;;
18917;SDS011;9591;52.742;13.650;2023-06-26T00:16:59;17.50;;;8.50;;
18917;SDS011;9591;52.742;13.650;2023-06-26T00:19:46;14.70;;;9.43;;
18917;SDS011;9591;52.742;13.650;2023-06-26T00:22:34;13.83;;;9.43;;
18917;SDS011;9591;52.742;13.650;2023-06-26T00:25:21;16.60;;;9.27;;
18917;SDS011;9591;52.742;13.650;2023-06-26T00:28:08;16.97;;;9.40;;
18917;SDS011;9591;52.742;13.650;2023-06-26T00:30:55;15.00;;;9.27;;
18917;SDS011;9591;52.742;13.650;2023-06-26T00:33:42;15.60;;;9.47;;
18917;SDS011;9591;52.742;13.650;2023-06-26T00:36:29;16.00;;;9.97;;
18917;SDS011;9591;52.742;13.650;2023-06-26T00:39:17;13.23;;;9.10;;
18917;SDS011;9591;52.742;13.650;2023-06-26T00:42:05;13.07;;;9.03;;
18917;SDS011;9591;52.742;13.650;2023-06-26T00:44:53;15.90;;;9.20;;
18917;SDS011;9591;52.742;13.650;2023-06-26T00:47:40;17.73;;;9.73;;
18917;SDS011;9591;52.742;13.650;2023-06-26T00:50:27;15.37;;;9.37;;
18917;SDS011;9591;52.742;13.650;2023-06-26T00:53:14;16.37;;;9.23;;
18917;SDS011;9591;52.742;13.650;2023-06-26T00:56:03;18.87;;;9.90;;
18917;SDS011;9591;52.742;13.650;2023-06-26T00:58:52;15.00;;;9.30;;
18917;SDS011;9591;52.742;13.650;2023-06-26T01:01:39;16.70;;;8.90;;
18917;SDS011;9591;52.742;13.650;2023-06-26T01:04:28;16.40;;;9.13;;
18917;SDS011;9591;52.742;13.650;2023-06-26T01:07:18;18.13;;;9.30;;
18917;SDS011;9591;52.742;13.650;2023-06-26T01:10:07;18.00;;;9.33;;
18917;SDS011;9591;52.742;13.650;2023-06-26T01:12:56;12.10;;;9.07;;
18917;SDS011;9591;52.742;13.650;2023-06-26T01:15:43;15.40;;;9.03;;
18917;SDS011;9591;52.742;13.650;2023-06-26T01:18:31;14.37;;;9.27;;
18917;SDS011;9591;52.742;13.650;2023-06-26T01:21:19;16.53;;;9.57;;
18917;SDS011;9591;52.742;13.650;2023-06-26T01:24:07;15.03;;;9.80;;
18917;SDS011;9591;52.742;13.650;2023-06-26T01:27:08;15.13;;;9.00;;
18917;SDS011;9591;52.742;13.650;2023-06-26T01:29:56;13.47;;;9.33;;
18917;SDS011;9591;52.742;13.650;2023-06-26T01:32:43;16.00;;;9.00;;
18917;SDS011;9591;52.742;13.650;2023-06-26T01:35:32;15.20;;;8.60;;
18917;SDS011;9591;52.742;13.650;2023-06-26T01:38:22;18.80;;;8.77;;
18917;SDS011;9591;52.742;13.650;2023-06-26T01:41:09;13.57;;;8.47;;
18917;SDS011;9591;52.742;13.650;2023-06-26T01:44:05;18.17;;;9.60;;
18917;SDS011;9591;52.742;13.650;2023-06-26T01:47:01;12.47;;;9.33;;
18917;SDS011;9591;52.742;13.650;2023-06-26T01:49:51;19.83;;;9.17;;
18917;SDS011;9591;52.742;13.650;2023-06-26T01:52:45;15.83;;;9.00;;
18917;SDS011;9591;52.742;13.650;2023-06-26T01:55:40;16.13;;;8.87;;
18917;SDS011;9591;52.742;13.650;2023-06-26T01:58:34;15.77;;;9.10;;
18917;SDS011;9591;52.742;13.650;2023-06-26T02:01:25;13.33;;;8.97;;
18917;SDS011;9591;52.742;13.650;2023-06-26T02:04:11;15.37;;;9.40;;
18917;SDS011;9591;52.742;13.650;2023-06-26T02:06:58;18.23;;;9.57;;
18917;SDS011;9591;52.742;13.650;2023-06-26T02:09:47;16.73;;;9.30;;
18917;SDS011;9591;52.742;13.650;2023-06-26T02:12:35;15.07;;;9.63;;
18917;SDS011;9591;52.742;13.650;2023-06-26T02:15:23;15.60;;;8.50;;
18917;SDS011;9591;52.742;13.650;2023-06-26T02:18:13;15.53;;;9.13;;
18917;SDS011;9591;52.742;13.650;2023-06-26T02:20:59;14.77;;;9.13;;
18917;SDS011;9591;52.742;13.650;2023-06-26T02:23:46;13.40;;;8.27;;
18917;SDS011;9591;52.742;13.650;2023-06-26T02:26:33;15.83;;;8.70;;
18917;SDS011;9591;52.742;13.650;2023-06-26T02:29:20;13.17;;;8.43;;
18917;SDS011;9591;52.742;13.650;2023-06-26T02:32:07;16.10;;;9.13;;
18917;SDS011;9591;52.742;13.650;2023-06-26T02:34:55;17.90;;;9.53;;
18917;SDS011;9591;52.742;13.650;2023-06-26T02:37:42;15.50;;;8.73;;
18917;SDS011;9591;52.742;13.650;2023-06-26T02:40:29;17.10;;;9.30;;
18917;SDS011;9591;52.742;13.650;2023-06-26T02:43:16;16.13;;;8.67;;
18917;SDS011;9591;52.742;13.650;2023-06-26T02:46:03;17.13;;;9.00;;
18917;SDS011;9591;52.742;13.650;2023-06-26T02:48:49;13.00;;;8.70;;
18917;SDS011;9591;52.742;13.650;2023-06-26T02:51:39;16.57;;;8.60;;
18917;SDS011;9591;52.742;13.650;2023-06-26T02:54:34;15.27;;;8.70;;
18917;SDS011;9591;52.742;13.650;2023-06-26T02:57:22;14.23;;;8.47;;
18917;SDS011;9591;52.742;13.650;2023-06-26T03:00:09;13.67;;;7.80;;
18917;SDS011;9591;52.742;13.650;2023-06-26T03:03:03;12.97;;;8.47;;
18917;SDS011;9591;52.742;13.650;2023-06-26T03:05:50;16.07;;;8.50;;
18917;SDS011;9591;52.742;13.650;2023-06-26T03:08:39;13.57;;;8.73;;
18917;SDS011;9591;52.742;13.650;2023-06-26T03:11:26;13.20;;;8.23;;
18917;SDS011;9591;52.742;13.650;2023-06-26T03:14:13;18.37;;;9.20;;
18917;SDS011;9591;52.742;13.650;2023-06-26T03:17:00;21.37;;;10.00;;
18917;SDS011;9591;52.742;13.650;2023-06-26T03:19:51;20.70;;;8.70;;
18917;SDS011;9591;52.742;13.650;2023-06-26T03:22:40;19.37;;;10.20;;
18917;SDS011;9591;52.742;13.650;2023-06-26T03:25:28;18.27;;;8.83;;
18917;SDS011;9591;52.742;13.650;2023-06-26T03:28:36;21.97;;;8.80;;
18917;SDS011;9591;52.742;13.650;2023-06-26T03:31:23;25.57;;;9.40;;
18917;SDS011;9591;52.742;13.650;2023-06-26T03:34:11;24.73;;;9.37;;
18917;SDS011;9591;52.742;13.650;2023-06-26T03:36:57;23.17;;;9.03;;
18917;SDS011;9591;52.742;13.650;2023-06-26T03:39:44;17.10;;;8.00;;
18917;SDS011;9591;52.742;13.650;2023-06-26T03:42:32;15.17;;;8.03;;
18917;SDS011;9591;52.742;13.650;2023-06-26T03:45:19;16.63;;;8.27;;
18917;SDS011;9591;52.742;13.650;2023-06-26T03:48:06;17.13;;;8.77;;
18917;SDS011;9591;52.742;13.650;2023-06-26T03:50:54;16.20;;;9.10;;
18917;SDS011;9591;52.742;13.650;2023-06-26T03:53:41;18.10;;;9.17;;
18917;SDS011;9591;52.742;13.650;2023-06-26T03:56:27;16.30;;;8.83;;
18917;SDS011;9591;52.742;13.650;2023-06-26T03:59:16;12.77;;;8.87;;
18917;SDS011;9591;52.742;13.650;2023-06-26T04:02:03;16.13;;;8.23;;
18917;SDS011;9591;52.742;13.650;2023-06-26T04:04:50;21.17;;;8.03;;
18917;SDS011;9591;52.742;13.650;2023-06-26T04:07:38;17.07;;;8.63;;
18917;SDS011;9591;52.742;13.650;2023-06-26T04:10:25;16.83;;;8.77;;
18917;SDS011;9591;52.742;13.650;2023-06-26T04:13:13;19.93;;;8.50;;
18917;SDS011;9591;52.742;13.650;2023-06-26T04:16:01;14.53;;;8.30;;
18917;SDS011;9591;52.742;13.650;2023-06-26T04:18:49;17.07;;;7.43;;
18917;SDS011;9591;52.742;13.650;2023-06-26T04:21:35;12.17;;;7.47;;
18917;SDS011;9591;52.742;13.650;2023-06-26T04:24:22;13.57;;;7.63;;
18917;SDS011;9591;52.742;13.650;2023-06-26T04:27:09;11.40;;;7.43;;
18917;SDS011;9591;52.742;13.650;2023-06-26T04:29:56;12.53;;;7.23;;
18917;SDS011;9591;52.742;13.650;2023-06-26T04:32:44;16.20;;;7.20;;
18917;SDS011;9591;52.742;13.650;2023-06-26T04:35:31;14.60;;;7.37;;
18917;SDS011;9591;52.742;13.650;2023-06-26T04:38:22;14.33;;;7.13;;
18917;SDS011;9591;52.742;13.650;2023-06-26T04:41:08;15.43;;;7.67;;
18917;SDS011;9591;52.742;13.650;2023-06-26T04:43:55;15.73;;;7.60;;
18917;SDS011;9591;52.742;13.650;2023-06-26T04:46:42;11.83;;;7.10;;
18917;SDS011;9591;52.742;13.650;2023-06-26T04:49:31;12.17;;;7.60;;
18917;SDS011;9591;52.742;13.650;2023-06-26T04:52:18;45.20;;;8.53;;
18917;SDS011;9591;52.742;13.650;2023-06-26T04:55:05;11.97;;;7.40;;
18917;SDS011;9591;52.742;13.650;2023-06-26T04:57:52;19.33;;;7.67;;
18917;SDS011;9591;52.742;13.650;2023-06-26T05:00:38;15.13;;;7.67;;
18917;SDS011;9591;52.742;13.650;2023-06-26T05:03:27;13.53;;;7.00;;
18917;SDS011;9591;52.742;13.650;2023-06-26T05:06:15;14.93;;;8.53;;
18917;SDS011;9591;52.742;13.650;2023-06-26T05:09:02;12.57;;;8.40;;
18917;SDS011;9591;52.742;13.650;2023-06-26T05:11:49;15.83;;;8.90;;
18917;SDS011;9591;52.742;13.650;2023-06-26T05:14:35;11.20;;;7.37;;
18917;SDS011;9591;52.742;13.650;2023-06-26T05:17:22;12.77;;;8.30;;
18917;SDS011;9591;52.742;13.650;2023-06-26T05:20:09;18.03;;;9.17;;
18917;SDS011;9591;52.742;13.650;2023-06-26T05:22:58;19.50;;;9.87;;
18917;SDS011;9591;52.742;13.650;2023-06-26T05:25:45;16.13;;;8.63;;
18917;SDS011;9591;52.742;13.650;2023-06-26T05:28:32;13.97;;;7.83;;
18917;SDS011;9591;52.742;13.650;2023-06-26T05:31:21;16.37;;;7.70;;
18917;SDS011;9591;52.742;13.650;2023-06-26T05:34:08;11.93;;;8.67;;
18917;SDS011;9591;52.742;13.650;2023-06-26T05:36:59;12.27;;;8.93;;
18917;SDS011;9591;52.742;13.650;2023-06-26T05:39:47;14.10;;;9.33;;
18917;SDS011;9591;52.742;13.650;2023-06-26T05:42:35;15.80;;;8.67;;
18917;SDS011;9591;52.742;13.650;2023-06-26T05:45:22;14.40;;;9.33;;
18917;SDS011;9591;52.742;13.650;2023-06-26T05:48:08;16.63;;;8.73;;
18917;SDS011;9591;52.742;13.650;2023-06-26T05:50:55;14.20;;;7.97;;
18917;SDS011;9591;52.742;13.650;2023-06-26T05:53:43;13.60;;;8.40;;
18917;SDS011;9591;52.742;13.650;2023-06-26T05:56:31;13.00;;;8.40;;
18917;SDS011;9591;52.742;13.650;2023-06-26T05:59:19;13.13;;;7.97;;
18917;SDS011;9591;52.742;13.650;2023-06-26T06:02:06;15.73;;;8.27;;
18917;SDS011;9591;52.742;13.650;2023-06-26T06:04:53;13.10;;;8.77;;
18917;SDS011;9591;52.742;13.650;2023-06-26T06:07:40;24.23;;;8.50;;
18917;SDS011;9591;52.742;13.650;2023-06-26T06:10:27;10.50;;;7.33;;
18917;SDS011;9591;52.742;13.650;2023-06-26T06:13:15;21.57;;;8.07;;
18917;SDS011;9591;52.742;13.650;2023-06-26T06:16:02;13.43;;;7.80;;
18917;SDS011;9591;52.742;13.650;2023-06-26T06:18:49;12.30;;;7.80;;
18917;SDS011;9591;52.742;13.650;2023-06-26T06:21:35;11.40;;;7.07;;
18917;SDS011;9591;52.742;13.650;2023-06-26T06:24:22;13.13;;;7.43;;
18917;SDS011;9591;52.742;13.650;2023-06-26T06:27:09;12.10;;;7.17;;
18917;SDS011;9591;52.742;13.650;2023-06-26T06:29:57;9.27;;;7.40;;
18917;SDS011;9591;52.742;13.650;2023-06-26T06:32:44;13.57;;;7.47;;
18917;SDS011;9591;52.742;13.650;2023-06-26T06:35:35;10.40;;;6.40;;
18917;SDS011;9591;52.742;13.650;2023-06-26T06:38:22;8.30;;;6.40;;
18917;SDS011;9591;52.742;13.650;2023-06-26T06:41:09;10.43;;;6.70;;
18917;SDS011;9591;52.742;13.650;2023-06-26T06:43:56;12.43;;;7.40;;
18917;SDS011;9591;52.742;13.650;2023-06-26T06:46:44;11.13;;;6.97;;
18917;SDS011;9591;52.742;13.650;2023-06-26T06:49:30;12.00;;;6.70;;
18917;SDS011;9591;52.742;13.650;2023-06-26T06:52:17;8.73;;;5.70;;
18917;SDS011;9591;52.742;13.650;2023-06-26T06:55:04;14.17;;;6.00;;
18917;SDS011;9591;52.742;13.650;2023-06-26T06:57:53;10.13;;;6.00;;
18917;SDS011;9591;52.742;13.650;2023-06-26T07:00:40;9.00;;;5.93;;
18917;SDS011;9591;52.742;13.650;2023-06-26T07:03:28;10.20;;;6.07;;
18917;SDS011;9591;52.742;13.650;2023-06-26T07:06:16;8.47;;;6.40;;
18917;SDS011;9591;52.742;13.650;2023-06-26T07:09:03;13.70;;;6.43;;
18917;SDS011;9591;52.742;13.650;2023-06-26T07:11:51;10.90;;;5.73;;
18917;SDS011;9591;52.742;13.650;2023-06-26T07:14:38;10.30;;;6.20;;
18917;SDS011;9591;52.742;13.650;2023-06-26T07:17:25;9.83;;;6.30;;
18917;SDS011;9591;52.742;13.650;2023-06-26T07:20:14;11.17;;;6.47;;
18917;SDS011;9591;52.742;13.650;2023-06-26T07:23:01;11.73;;;6.60;;
18917;SDS011;9591;52.742;13.650;2023-06-26T07:25:47;10.40;;;5.97;;
18917;SDS011;9591;52.742;13.650;2023-06-26T07:28:34;7.87;;;5.63;;
18917;SDS011;9591;52.742;13.650;2023-06-26T07:31:21;9.07;;;5.90;;
18917;SDS011;9591;52.742;13.650;2023-06-26T07:34:08;8.30;;;5.80;;
18917;SDS011;9591;52.742;13.650;2023-06-26T07:36:56;9.93;;;6.50;;
18917;SDS011;9591;52.742;13.650;2023-06-26T07:39:43;10.13;;;5.50;;
18917;SDS011;9591;52.742;13.650;2023-06-26T07:42:30;7.80;;;5.93;;
18917;SDS011;9591;52.742;13.650;2023-06-26T07:45:17;10.80;;;5.33;;
18917;SDS011;9591;52.742;13.650;2023-06-26T07:48:04;11.77;;;5.60;;
18917;SDS011;9591;52.742;13.650;2023-06-26T07:50:52;7.07;;;5.40;;
18917;SDS011;9591;52.742;13.650;2023-06-26T07:53:41;8.07;;;5.23;;
18917;SDS011;9591;52.742;13.650;2023-06-26T07:56:28;8.80;;;5.57;;
18917;SDS011;9591;52.742;13.650;2023-06-26T07:59:15;14.07;;;5.87;;
18917;SDS011;9591;52.742;13.650;2023-06-26T08:02:02;10.37;;;4.43;;
18917;SDS011;9591;52.742;13.650;2023-06-26T08:04:49;9.83;;;5.20;;
18917;SDS011;9591;52.742;13.650;2023-06-26T08:07:36;8.63;;;5.37;;
18917;SDS011;9591;52.742;13.650;2023-06-26T08:10:25;6.23;;;4.97;;
18917;SDS011;9591;52.742;13.650;2023-06-26T08:13:11;8.97;;;5.37;;
18917;SDS011;9591;52.742;13.650;2023-06-26T08:15:58;9.70;;;4.77;;
18917;SDS011;9591;52.742;13.650;2023-06-26T08:18:45;8.00;;;5.10;;
18917;SDS011;9591;52.742;13.650;2023-06-26T08:21:31;9.57;;;5.33;;
18917;SDS011;9591;52.742;13.650;2023-06-26T08:24:18;8.50;;;5.00;;
18917;SDS011;9591;52.742;13.650;2023-06-26T08:27:07;9.10;;;5.30;;
18917;SDS011;9591;52.742;13.650;2023-06-26T08:29:54;7.60;;;4.83;;
18917;SDS011;9591;52.742;13.650;2023-06-26T08:32:40;8.07;;;4.40;;
18917;SDS011;9591;52.742;13.650;2023-06-26T08:35:27;6.50;;;4.10;;
18917;SDS011;9591;52.742;13.650;2023-06-26T08:38:14;7.67;;;4.73;;
18917;SDS011;9591;52.742;13.650;2023-06-26T08:41:06;6.77;;;4.83;;
18917;SDS011;9591;52.742;13.650;2023-06-26T08:43:55;6.97;;;4.67;;
18917;SDS011;9591;52.742;13.650;2023-06-26T08:46:42;7.27;;;5.00;;
18917;SDS011;9591;52.742;13.650;2023-06-26T08:49:29;5.23;;;4.27;;
18917;SDS011;9591;52.742;13.650;2023-06-26T08:52:23;6.23;;;4.90;;
18917;SDS011;9591;52.742;13.650;2023-06-26T08:55:15;6.67;;;4.77;;
18917;SDS011;9591;52.742;13.650;2023-06-26T08:58:04;8.00;;;4.90;;
18917;SDS011;9591;52.742;13.650;2023-06-26T09:00:53;7.23;;;4.80;;
18917;SDS011;9591;52.742;13.650;2023-06-26T09:03:41;5.50;;;4.83;;
18917;SDS011;9591;52.742;13.650;2023-06-26T09:06:28;6.53;;;4.53;;
18917;SDS011;9591;52.742;13.650;2023-06-26T09:09:15;9.03;;;4.93;;
18917;SDS011;9591;52.742;13.650;2023-06-26T09:12:01;31.10;;;6.10;;
18917;SDS011;9591;52.742;13.650;2023-06-26T09:14:49;7.87;;;4.90;;
18917;SDS011;9591;52.742;13.650;2023-06-26T09:17:39;8.83;;;4.80;;
18917;SDS011;9591;52.742;13.650;2023-06-26T09:20:27;6.53;;;4.87;;
18917;SDS011;9591;52.742;13.650;2023-06-26T09:23:14;9.83;;;4.97;;
18917;SDS011;9591;52.742;13.650;2023-06-26T09:26:01;7.63;;;5.17;;
18917;SDS011;9591;52.742;13.650;2023-06-26T09:28:49;6.87;;;5.17;;
18917;SDS011;9591;52.742;13.650;2023-06-26T09:31:39;5.00;;;4.13;;
18917;SDS011;9591;52.742;13.650;2023-06-26T09:34:31;8.33;;;5.10;;
18917;SDS011;9591;52.742;13.650;2023-06-26T09:37:18;7.83;;;5.10;;
18917;SDS011;9591;52.742;13.650;2023-06-26T09:40:05;12.63;;;5.37;;
18917;SDS011;9591;52.742;13.650;2023-06-26T09:42:53;7.03;;;4.70;;
18917;SDS011;9591;52.742;13.650;2023-06-26T09:45:49;6.10;;;4.87;;
18917;SDS011;9591;52.742;13.650;2023-06-26T09:48:35;6.20;;;4.67;;
18917;SDS011;9591;52.742;13.650;2023-06-26T09:51:24;6.20;;;4.53;;
18917;SDS011;9591;52.742;13.650;2023-06-26T09:54:10;7.57;;;5.37;;
18917;SDS011;9591;52.742;13.650;2023-06-26T09:57:06;5.60;;;4.67;;
18917;SDS011;9591;52.742;13.650;2023-06-26T09:59:53;12.37;;;4.70;;
18917;SDS011;9591;52.742;13.650;2023-06-26T10:02:40;6.60;;;4.73;;
18917;SDS011;9591;52.742;13.650;2023-06-26T10:05:26;6.10;;;4.27;;
18917;SDS011;9591;52.742;13.650;2023-06-26T10:08:15;7.13;;;4.43;;
18917;SDS011;9591;52.742;13.650;2023-06-26T10:11:03;5.27;;;4.40;;
18917;SDS011;9591;52.742;13.650;2023-06-26T10:13:50;6.30;;;4.40;;
18917;SDS011;9591;52.742;13.650;2023-06-26T10:17:00;6.30;;;4.27;;
18917;SDS011;9591;52.742;13.650;2023-06-26T10:19:49;5.43;;;4.30;;
18917;SDS011;9591;52.742;13.650;2023-06-26T10:22:40;5.30;;;3.83;;
18917;SDS011;9591;52.742;13.650;2023-06-26T10:25:31;5.27;;;4.10;;
18917;SDS011;9591;52.742;13.650;2023-06-26T10:28:18;7.17;;;4.43;;
18917;SDS011;9591;52.742;13.650;2023-06-26T10:31:07;9.53;;;4.10;;
18917;SDS011;9591;52.742;13.650;2023-06-26T10:33:57;5.77;;;3.77;;
18917;SDS011;9591;52.742;13.650;2023-06-26T10:36:44;6.77;;;4.13;;
18917;SDS011;9591;52.742;13.650;2023-06-26T10:39:45;7.20;;;4.00;;
18917;SDS011;9591;52.742;13.650;2023-06-26T10:42:36;5.67;;;3.73;;
18917;SDS011;9591;52.742;13.650;2023-06-26T10:45:27;9.50;;;4.70;;
18917;SDS011;9591;52.742;13.650;2023-06-26T10:48:14;4.37;;;3.97;;
18917;SDS011;9591;52.742;13.650;2023-06-26T10:51:11;23.93;;;4.90;;
18917;SDS011;9591;52.742;13.650;2023-06-26T10:54:00;6.43;;;4.30;;
18917;SDS011;9591;52.742;13.650;2023-06-26T10:56:48;7.57;;;4.17;;
18917;SDS011;9591;52.742;13.650;2023-06-26T10:59:38;8.47;;;4.40;;
18917;SDS011;9591;52.742;13.650;2023-06-26T11:02:26;22.63;;;4.43;;
18917;SDS011;9591;52.742;13.650;2023-06-26T11:05:13;9.03;;;4.07;;
18917;SDS011;9591;52.742;13.650;2023-06-26T11:08:10;5.60;;;4.27;;
18917;SDS011;9591;52.742;13.650;2023-06-26T11:11:00;4.47;;;3.90;;
18917;SDS011;9591;52.742;13.650;2023-06-26T11:13:47;10.03;;;4.27;;
18917;SDS011;9591;52.742;13.650;2023-06-26T11:16:36;6.47;;;4.00;;
18917;SDS011;9591;52.742;13.650;2023-06-26T11:19:23;4.67;;;3.80;;
18917;SDS011;9591;52.742;13.650;2023-06-26T11:22:12;5.83;;;4.50;;
18917;SDS011;9591;52.742;13.650;2023-06-26T11:25:01;9.97;;;4.50;;
18917;SDS011;9591;52.742;13.650;2023-06-26T11:27:48;5.20;;;3.90;;
18917;SDS011;9591;52.742;13.650;2023-06-26T11:30:35;8.83;;;4.27;;
18917;SDS011;9591;52.742;13.650;2023-06-26T11:33:26;7.60;;;4.30;;
18917;SDS011;9591;52.742;13.650;2023-06-26T11:36:13;5.47;;;4.10;;
18917;SDS011;9591;52.742;13.650;2023-06-26T11:39:00;5.90;;;4.27;;
18917;SDS011;9591;52.742;13.650;2023-06-26T11:41:48;4.97;;;4.27;;
18917;SDS011;9591;52.742;13.650;2023-06-26T11:44:39;7.10;;;4.20;;
18917;SDS011;9591;52.742;13.650;2023-06-26T11:47:27;5.70;;;4.10;;
18917;SDS011;9591;52.742;13.650;2023-06-26T11:50:16;6.40;;;4.37;;
18917;SDS011;9591;52.742;13.650;2023-06-26T11:53:02;5.73;;;4.50;;
18917;SDS011;9591;52.742;13.650;2023-06-26T11:55:50;7.03;;;4.37;;
18917;SDS011;9591;52.742;13.650;2023-06-26T11:58:37;6.80;;;4.57;;
18917;SDS011;9591;52.742;13.650;2023-06-26T12:01:42;7.17;;;4.40;;
18917;SDS011;9591;52.742;13.650;2023-06-26T12:04:30;6.40;;;4.30;;
18917;SDS011;9591;52.742;13.650;2023-06-26T12:07:20;6.30;;;4.70;;
18917;SDS011;9591;52.742;13.650;2023-06-26T12:10:08;8.63;;;4.63;;
18917;SDS011;9591;52.742;13.650;2023-06-26T12:12:57;7.63;;;4.33;;
18917;SDS011;9591;52.742;13.650;2023-06-26T12:15:45;6.00;;;4.20;;
18917;SDS011;9591;52.742;13.650;2023-06-26T12:18:33;4.80;;;4.10;;
18917;SDS011;9591;52.742;13.650;2023-06-26T12:21:28;7.10;;;4.30;;
18917;SDS011;9591;52.742;13.650;2023-06-26T12:24:17;8.87;;;4.40;;
18917;SDS011;9591;52.742;13.650;2023-06-26T12:27:08;10.73;;;5.87;;
18917;SDS011;9591;52.742;13.650;2023-06-26T12:29:55;10.10;;;4.70;;
18917;SDS011;9591;52.742;13.650;2023-06-26T12:32:44;8.50;;;4.53;;
18917;SDS011;9591;52.742;13.650;2023-06-26T12:35:32;8.17;;;4.20;;
18917;SDS011;9591;52.742;13.650;2023-06-26T12:38:19;6.50;;;4.50;;
18917;SDS011;9591;52.742;13.650;2023-06-26T12:41:12;6.70;;;4.43;;
18917;SDS011;9591;52.742;13.650;2023-06-26T12:44:00;6.80;;;4.47;;
18917;SDS011;9591;52.742;13.650;2023-06-26T12:46:47;7.03;;;4.40;;
18917;SDS011;9591;52.742;13.650;2023-06-26T12:49:34;8.47;;;4.10;;
18917;SDS011;9591;52.742;13.650;2023-06-26T12:52:22;8.10;;;4.40;;
18917;SDS011;9591;52.742;13.650;2023-06-26T12:55:09;6.47;;;4.80;;
18917;SDS011;9591;52.742;13.650;2023-06-26T12:57:57;6.40;;;4.70;;
18917;SDS011;9591;52.742;13.650;2023-06-26T13:00:44;6.33;;;4.57;;
18917;SDS011;9591;52.742;13.650;2023-06-26T13:03:31;7.90;;;4.63;;
18917;SDS011;9591;52.742;13.650;2023-06-26T13:06:20;6.40;;;4.67;;
18917;SDS011;9591;52.742;13.650;2023-06-26T13:09:07;6.13;;;4.47;;
18917;SDS011;9591;52.742;13.650;2023-06-26T13:11:54;5.67;;;4.07;;
18917;SDS011;9591;52.742;13.650;2023-06-26T13:14:42;6.37;;;4.70;;
18917;SDS011;9591;52.742;13.650;2023-06-26T13:17:29;5.43;;;4.37;;
18917;SDS011;9591;52.742;13.650;2023-06-26T13:20:16;6.73;;;4.30;;
18917;SDS011;9591;52.742;13.650;2023-06-26T13:23:03;6.33;;;4.03;;
18917;SDS011;9591;52.742;13.650;2023-06-26T13:25:51;6.10;;;4.67;;
18917;SDS011;9591;52.742;13.650;2023-06-26T13:28:38;7.53;;;4.53;;
18917;SDS011;9591;52.742;13.650;2023-06-26T13:31:27;6.57;;;4.67;;
18917;SDS011;9591;52.742;13.650;2023-06-26T13:34:20;7.77;;;4.60;;
18917;SDS011;9591;52.742;13.650;2023-06-26T13:37:08;6.93;;;4.47;;
18917;SDS011;9591;52.742;13.650;2023-06-26T13:39:55;6.67;;;4.67;;
18917;SDS011;9591;52.742;13.650;2023-06-26T13:42:44;7.77;;;4.10;;
18917;SDS011;9591;52.742;13.650;2023-06-26T13:45:31;5.70;;;4.90;;
18917;SDS011;9591;52.742;13.650;2023-06-26T13:48:19;7.23;;;4.60;;
18917;SDS011;9591;52.742;13.650;2023-06-26T13:51:06;9.07;;;4.90;;
18917;SDS011;9591;52.742;13.650;2023-06-26T13:53:53;5.63;;;4.87;;
18917;SDS011;9591;52.742;13.650;2023-06-26T13:56:40;8.67;;;4.70;;
18917;SDS011;9591;52.742;13.650;2023-06-26T13:59:26;8.60;;;4.50;;
18917;SDS011;9591;52.742;13.650;2023-06-26T14:02:13;9.83;;;4.57;;
18917;SDS011;9591;52.742;13.650;2023-06-26T14:05:01;9.17;;;4.80;;
18917;SDS011;9591;52.742;13.650;2023-06-26T14:07:49;6.70;;;4.70;;
18917;SDS011;9591;52.742;13.650;2023-06-26T14:10:36;6.97;;;4.37;;
18917;SDS011;9591;52.742;13.650;2023-06-26T14:13:23;6.13;;;4.60;;
18917;SDS011;9591;52.742;13.650;2023-06-26T14:16:10;6.20;;;4.70;;
18917;SDS011;9591;52.742;13.650;2023-06-26T14:18:57;9.57;;;5.00;;
18917;SDS011;9591;52.742;13.650;2023-06-26T14:21:48;12.60;;;4.70;;
18917;SDS011;9591;52.742;13.650;2023-06-26T14:24:35;5.57;;;4.70;;
18917;SDS011;9591;52.742;13.650;2023-06-26T14:27:21;8.47;;;5.00;;
18917;SDS011;9591;52.742;13.650;2023-06-26T14:30:09;6.23;;;5.07;;
18917;SDS011;9591;52.742;13.650;2023-06-26T14:32:56;9.40;;;4.47;;
18917;SDS011;9591;52.742;13.650;2023-06-26T14:35:43;8.77;;;5.23;;
18917;SDS011;9591;52.742;13.650;2023-06-26T14:38:31;13.63;;;4.70;;
18917;SDS011;9591;52.742;13.650;2023-06-26T14:41:18;27.87;;;5.87;;
18917;SDS011;9591;52.742;13.650;2023-06-26T14:44:05;17.67;;;5.77;;
18917;SDS011;9591;52.742;13.650;2023-06-26T14:46:55;17.17;;;6.20;;
18917;SDS011;9591;52.742;13.650;2023-06-26T14:49:42;14.83;;;6.60;;
18917;SDS011;9591;52.742;13.650;2023-06-26T14:52:29;16.63;;;5.70;;
18917;SDS011;9591;52.742;13.650;2023-06-26T14:55:17;19.63;;;6.20;;
18917;SDS011;9591;52.742;13.650;2023-06-26T14:58:04;11.67;;;5.77;;
18917;SDS011;9591;52.742;13.650;2023-06-26T15:00:50;15.57;;;6.27;;
18917;SDS011;9591;52.742;13.650;2023-06-26T15:03:37;12.10;;;6.37;;
18917;SDS011;9591;52.742;13.650;2023-06-26T15:06:24;11.03;;;6.73;;
18917;SDS011;9591;52.742;13.650;2023-06-26T15:09:11;15.60;;;6.37;;
18917;SDS011;9591;52.742;13.650;2023-06-26T15:11:59;10.07;;;5.80;;
18917;SDS011;9591;52.742;13.650;2023-06-26T15:14:46;13.50;;;5.97;;
18917;SDS011;9591;52.742;13.650;2023-06-26T15:17:32;14.23;;;6.03;;
18917;SDS011;9591;52.742;13.650;2023-06-26T15:20:19;14.50;;;6.40;;
18917;SDS011;9591;52.742;13.650;2023-06-26T15:23:06;9.93;;;5.50;;
18917;SDS011;9591;52.742;13.650;2023-06-26T15:25:53;11.23;;;6.03;;
18917;SDS011;9591;52.742;13.650;2023-06-26T15:28:41;8.13;;;5.80;;
18917;SDS011;9591;52.742;13.650;2023-06-26T15:31:28;12.40;;;5.50;;
18917;SDS011;9591;52.742;13.650;2023-06-26T15:34:16;12.23;;;6.37;;
18917;SDS011;9591;52.742;13.650;2023-06-26T15:37:03;12.07;;;5.97;;
18917;SDS011;9591;52.742;13.650;2023-06-26T15:39:50;9.40;;;6.20;;
18917;SDS011;9591;52.742;13.650;2023-06-26T15:42:44;15.50;;;7.10;;
18917;SDS011;9591;52.742;13.650;2023-06-26T15:45:33;26.33;;;7.30;;
18917;SDS011;9591;52.742;13.650;2023-06-26T15:48:20;15.43;;;5.50;;
18917;SDS011;9591;52.742;13.650;2023-06-26T15:51:07;17.13;;;6.17;;
18917;SDS011;9591;52.742;13.650;2023-06-26T15:53:54;20.30;;;5.73;;
18917;SDS011;9591;52.742;13.650;2023-06-26T15:56:41;22.37;;;8.13;;
18917;SDS011;9591;52.742;13.650;2023-06-26T15:59:28;17.60;;;8.33;;
18917;SDS011;9591;52.742;13.650;2023-06-26T16:02:16;17.87;;;7.90;;
18917;SDS011;9591;52.742;13.650;2023-06-26T16:05:03;21.37;;;8.63;;
18917;SDS011;9591;52.742;13.650;2023-06-26T16:07:50;12.67;;;8.07;;
18917;SDS011;9591;52.742;13.650;2023-06-26T16:10:42;16.57;;;7.97;;
18917;SDS011;9591;52.742;13.650;2023-06-26T16:13:28;15.17;;;8.20;;
18917;SDS011;9591;52.742;13.650;2023-06-26T16:16:15;12.60;;;7.50;;
18917;SDS011;9591;52.742;13.650;2023-06-26T16:19:03;15.40;;;7.47;;
18917;SDS011;9591;52.742;13.650;2023-06-26T16:21:50;12.07;;;6.67;;
18917;SDS011;9591;52.742;13.650;2023-06-26T16:24:37;13.30;;;7.17;;
18917;SDS011;9591;52.742;13.650;2023-06-26T16:27:24;14.47;;;7.90;;
18917;SDS011;9591;52.742;13.650;2023-06-26T16:30:11;10.37;;;7.30;;
18917;SDS011;9591;52.742;13.650;2023-06-26T16:32:59;16.30;;;7.73;;
18917;SDS011;9591;52.742;13.650;2023-06-26T16:35:47;14.37;;;7.47;;
18917;SDS011;9591;52.742;13.650;2023-06-26T16:38:33;11.37;;;8.03;;
18917;SDS011;9591;52.742;13.650;2023-06-26T16:41:20;12.67;;;8.37;;
18917;SDS011;9591;52.742;13.650;2023-06-26T16:44:09;11.93;;;7.70;;